Time;durP1;ratioP1;P1;durP2;ratioP2;P2;SDS_P1;SDS_P2;PMS_P1;PMS_P2;Temp;Humidity;BMP_temperature;BMP_pressure;BME280_temperature;BME280_humidity;BME280_pressure;Samples;Min_cycle;Max_cycle;Signal;HPM_P1;HPM_P2
2021/01/19 00:01:14;;;;;;;12.10;9.23;;;;;;;;;;5093607;28;20178;-47
2021/01/19 00:03:41;;;;;;;16.92;8.90;;;;;;;;;;5093480;28;20444;-47
2021/01/19 00:06:07;;;;;;;18.33;9.55;;;;;;;;;;5093173;28;20170;-46
2021/01/19 00:08:33;;;;;;;14.18;9.13;;;;;;;;;;5093347;28;20217;-46
2021/01/19 00:11:00;;;;;;;16.02;9.60;;;;;;;;;;5093179;28;20174;-46
2021/01/19 00:13:26;;;;;;;10.20;9.07;;;;;;;;;;5091518;28;20252;-46
2021/01/19 00:15:52;;;;;;;18.77;11.30;;;;;;;;;;5092249;28;20211;-49
2021/01/19 00:18:18;;;;;;;16.70;10.95;;;;;;;;;;5093241;28;20178;-49
2021/01/19 00:20:45;;;;;;;13.35;10.63;;;;;;;;;;5093072;28;20166;-50
2021/01/19 00:23:13;;;;;;;13.77;9.82;;;;;;;;;;5092669;28;20246;-48
2021/01/19 00:25:40;;;;;;;15.30;10.60;;;;;;;;;;5093021;28;20242;-46
2021/01/19 00:28:06;;;;;;;15.40;9.05;;;;;;;;;;5093077;28;20213;-46
2021/01/19 00:30:32;;;;;;;12.98;10.38;;;;;;;;;;5093589;28;20201;-46
2021/01/19 00:32:58;;;;;;;15.50;9.73;;;;;;;;;;5093183;28;20223;-46
2021/01/19 00:35:24;;;;;;;16.67;9.40;;;;;;;;;;5092865;28;20454;-46
2021/01/19 00:37:50;;;;;;;14.20;10.00;;;;;;;;;;5092899;28;20424;-46
2021/01/19 00:40:16;;;;;;;17.30;10.77;;;;;;;;;;5092859;28;20402;-46
2021/01/19 00:42:42;;;;;;;13.40;9.05;;;;;;;;;;5092632;28;20433;-46
2021/01/19 00:45:08;;;;;;;15.50;8.60;;;;;;;;;;5091099;28;20531;-46
2021/01/19 00:47:34;;;;;;;13.13;9.40;;;;;;;;;;5092543;28;20797;-46
2021/01/19 00:50:00;;;;;;;19.90;9.10;;;;;;;;;;5092534;28;20162;-46
2021/01/19 00:52:26;;;;;;;15.67;8.57;;;;;;;;;;5092603;28;20388;-46
2021/01/19 00:54:52;;;;;;;21.00;9.40;;;;;;;;;;5092405;28;20892;-46
2021/01/19 00:57:18;;;;;;;19.10;8.35;;;;;;;;;;5092007;28;20519;-46
2021/01/19 00:59:44;;;;;;;18.20;9.03;;;;;;;;;;5092169;28;20244;-47
2021/01/19 01:02:10;;;;;;;13.53;8.23;;;;;;;;;;5092377;28;20394;-49
2021/01/19 01:04:36;;;;;;;19.13;7.60;;;;;;;;;;5092329;28;20395;-48
2021/01/19 01:07:02;;;;;;;20.60;8.20;;;;;;;;;;5091985;28;20960;-49
2021/01/19 01:09:28;;;;;;;14.67;8.00;;;;;;;;;;5092290;28;20399;-49
2021/01/19 01:11:54;;;;;;;12.73;6.30;;;;;;;;;;5090201;28;21094;-47
2021/01/19 01:14:20;;;;;;;15.10;7.17;;;;;;;;;;5092182;28;20799;-48
2021/01/19 01:16:45;;;;;;;12.50;7.30;;;;;;;;;;5091619;28;20446;-48
2021/01/19 01:19:11;;;;;;;17.97;6.93;;;;;;;;;;5092053;28;20440;-46
2021/01/19 01:21:38;;;;;;;15.67;6.40;;;;;;;;;;5091873;28;20465;-46
2021/01/19 01:24:05;;;;;;;14.25;7.63;;;;;;;;;;5091338;28;20962;-47
2021/01/19 01:26:31;;;;;;;9.35;7.00;;;;;;;;;;5091167;28;20183;-47
2021/01/19 01:28:57;;;;;;;13.23;6.40;;;;;;;;;;5091813;28;20248;-46
2021/01/19 01:31:23;;;;;;;18.27;7.50;;;;;;;;;;5091766;28;20418;-46
2021/01/19 01:33:49;;;;;;;9.17;6.47;;;;;;;;;;5091701;28;20815;-46
2021/01/19 01:36:16;;;;;;;15.03;5.97;;;;;;;;;;5091318;28;20458;-47
2021/01/19 01:38:42;;;;;;;12.80;6.40;;;;;;;;;;5091550;28;20536;-46
2021/01/19 01:41:17;;;;;;;14.30;6.80;;;;;;;;;;5090372;28;20214;-46
2021/01/19 01:43:44;;;;;;;11.20;6.25;;;;;;;;;;5091721;28;20552;-47
2021/01/19 01:46:11;;;;;;;12.27;5.88;;;;;;;;;;5091319;28;20252;-46
2021/01/19 01:48:37;;;;;;;7.88;5.80;;;;;;;;;;5091259;28;20677;-46
2021/01/19 01:51:03;;;;;;;10.73;6.55;;;;;;;;;;5091450;28;20561;-46
2021/01/19 01:53:29;;;;;;;13.27;5.93;;;;;;;;;;5091417;28;20174;-45
2021/01/19 01:55:55;;;;;;;12.52;6.25;;;;;;;;;;5090910;28;20656;-46
2021/01/19 01:58:21;;;;;;;11.80;5.30;;;;;;;;;;5091323;28;20191;-46
2021/01/19 02:00:49;;;;;;;9.90;5.00;;;;;;;;;;5090872;28;20165;-46
2021/01/19 02:03:15;;;;;;;8.07;5.35;;;;;;;;;;5090666;28;20632;-46
2021/01/19 02:05:41;;;;;;;7.27;5.27;;;;;;;;;;5090153;28;20189;-46
2021/01/19 02:08:10;;;;;;;5.17;4.57;;;;;;;;;;5091010;28;20820;-46
2021/01/19 02:10:39;;;;;;;11.18;5.50;;;;;;;;;;5089934;28;20466;-47
2021/01/19 02:13:35;;;;;;;10.15;4.88;;;;;;;;;;5091152;28;20704;-46
2021/01/19 02:16:06;;;;;;;15.40;5.18;;;;;;;;;;5073108;28;20732;-47
2021/01/19 02:18:31;;;;;;;9.32;4.90;;;;;;;;;;5090955;28;20671;-46
2021/01/19 02:21:11;;;;;;;8.33;4.40;;;;;;;;;;5090990;28;20172;-46
2021/01/19 02:23:43;;;;;;;6.78;3.90;;;;;;;;;;5090862;28;20466;-49
2021/01/19 02:26:21;;;;;;;7.50;4.32;;;;;;;;;;5090694;28;20636;-48
2021/01/19 02:28:52;;;;;;;10.57;4.20;;;;;;;;;;5090750;28;20539;-49
2021/01/19 02:31:37;;;;;;;7.32;3.92;;;;;;;;;;5091099;28;20195;-46
2021/01/19 02:34:18;;;;;;;8.20;3.97;;;;;;;;;;5091065;28;20524;-46
2021/01/19 02:36:53;;;;;;;5.97;3.33;;;;;;;;;;5089769;28;20691;-48
2021/01/19 02:39:45;;;;;;;7.25;3.33;;;;;;;;;;5090851;28;20219;-46
2021/01/19 02:42:12;;;;;;;9.48;4.00;;;;;;;;;;5086493;28;20212;-46
2021/01/19 02:44:39;;;;;;;5.88;4.28;;;;;;;;;;5091009;28;20169;-46
2021/01/19 02:47:06;;;;;;;11.25;4.50;;;;;;;;;;5090703;28;20664;-46
2021/01/19 02:49:31;;;;;;;6.50;3.10;;;;;;;;;;5090980;28;20181;-46
2021/01/19 02:51:58;;;;;;;6.67;4.27;;;;;;;;;;5090952;28;20169;-46
2021/01/19 02:54:24;;;;;;;3.85;3.17;;;;;;;;;;5090923;28;20417;-50
2021/01/19 02:56:51;;;;;;;5.85;4.00;;;;;;;;;;5090268;28;20671;-48
2021/01/19 02:59:20;;;;;;;5.55;3.40;;;;;;;;;;5090741;28;20169;-46
2021/01/19 03:02:16;;;;;;;9.05;5.20;;;;;;;;;;5090518;28;20223;-45
2021/01/19 03:04:42;;;;;;;12.43;3.75;;;;;;;;;;5073513;28;20197;-46
2021/01/19 03:07:09;;;;;;;8.95;4.03;;;;;;;;;;5090090;28;20200;-49
2021/01/19 03:09:36;;;;;;;4.38;3.30;;;;;;;;;;5090012;28;20648;-52
2021/01/19 03:12:02;;;;;;;4.32;3.45;;;;;;;;;;5090143;28;20181;-46
2021/01/19 03:14:29;;;;;;;8.25;3.95;;;;;;;;;;5090454;28;20168;-46
2021/01/19 03:17:03;;;;;;;5.63;3.50;;;;;;;;;;5089904;28;20208;-46
2021/01/19 03:19:29;;;;;;;4.90;3.00;;;;;;;;;;5072416;28;20204;-47
2021/01/19 03:21:55;;;;;;;3.92;3.35;;;;;;;;;;5090246;28;20658;-46
2021/01/19 03:24:21;;;;;;;3.63;3.17;;;;;;;;;;5090419;28;20158;-46
2021/01/19 03:26:47;;;;;;;7.13;3.60;;;;;;;;;;5090045;28;20998;-47
2021/01/19 03:29:13;;;;;;;4.97;3.50;;;;;;;;;;5090113;28;20456;-48
2021/01/19 03:31:39;;;;;;;3.70;3.23;;;;;;;;;;5090428;28;20444;-48
2021/01/19 03:34:05;;;;;;;3.60;3.30;;;;;;;;;;5090190;28;20407;-49
2021/01/19 03:36:31;;;;;;;3.63;3.30;;;;;;;;;;5089919;28;20451;-46
2021/01/19 03:38:57;;;;;;;8.63;4.73;;;;;;;;;;5090139;28;20480;-46
2021/01/19 03:41:22;;;;;;;6.93;3.33;;;;;;;;;;5088504;28;20783;-46
2021/01/19 03:43:48;;;;;;;8.10;3.30;;;;;;;;;;5090043;28;20448;-46
2021/01/19 03:46:14;;;;;;;4.47;2.97;;;;;;;;;;5090202;28;20414;-46
2021/01/19 03:48:40;;;;;;;7.25;3.65;;;;;;;;;;5093785;28;20429;-48
2021/01/19 03:51:06;;;;;;;4.00;3.03;;;;;;;;;;5093579;28;20256;-49
2021/01/19 03:53:32;;;;;;;5.90;3.60;;;;;;;;;;5093695;28;20461;-46
2021/01/19 03:55:58;;;;;;;3.13;2.90;;;;;;;;;;5093351;28;20443;-45
2021/01/19 03:58:24;;;;;;;8.37;2.63;;;;;;;;;;5093588;28;20950;-46
2021/01/19 04:00:50;;;;;;;5.03;2.53;;;;;;;;;;5091795;28;20431;-46
2021/01/19 04:03:16;;;;;;;5.90;3.28;;;;;;;;;;5093693;28;20407;-46
2021/01/19 04:05:42;;;;;;;4.50;2.70;;;;;;;;;;5093221;28;20169;-46
2021/01/19 04:08:08;;;;;;;3.37;2.70;;;;;;;;;;5093204;28;20478;-46
2021/01/19 04:10:34;;;;;;;6.67;3.40;;;;;;;;;;5093433;28;20402;-46
2021/01/19 04:13:00;;;;;;;4.53;3.20;;;;;;;;;;5093258;28;20958;-47
2021/01/19 04:15:26;;;;;;;7.50;3.20;;;;;;;;;;5092970;28;20931;-49
2021/01/19 04:17:52;;;;;;;7.17;2.70;;;;;;;;;;5093268;28;20468;-49
2021/01/19 04:20:18;;;;;;;4.60;2.75;;;;;;;;;;5093227;28;20486;-47
2021/01/19 04:22:44;;;;;;;7.63;3.23;;;;;;;;;;5093085;28;20165;-48
2021/01/19 04:25:10;;;;;;;3.70;3.20;;;;;;;;;;5093206;28;20486;-49
2021/01/19 04:27:36;;;;;;;10.38;3.65;;;;;;;;;;5092715;28;20434;-48
2021/01/19 04:30:07;;;;;;;3.05;2.50;;;;;;;;;;5092058;28;20634;-48
2021/01/19 04:32:33;;;;;;;5.50;3.38;;;;;;;;;;5091982;28;20251;-47
2021/01/19 04:34:59;;;;;;;10.77;2.80;;;;;;;;;;5092634;28;20246;-46
2021/01/19 04:37:26;;;;;;;6.07;2.80;;;;;;;;;;5092495;28;20685;-46
2021/01/19 04:39:53;;;;;;;8.13;4.75;;;;;;;;;;5092683;28;20407;-50
2021/01/19 04:42:19;;;;;;;5.90;3.30;;;;;;;;;;5092812;28;20158;-46
2021/01/19 04:44:46;;;;;;;9.88;3.45;;;;;;;;;;5092752;28;20167;-45
2021/01/19 04:47:13;;;;;;;6.57;3.13;;;;;;;;;;5092448;28;20300;-46
2021/01/19 04:49:39;;;;;;;7.25;3.25;;;;;;;;;;5092822;28;20756;-47
2021/01/19 04:52:05;;;;;;;8.43;3.92;;;;;;;;;;5092826;28;20215;-47
2021/01/19 04:54:37;;;;;;;7.10;3.42;;;;;;;;;;5092963;28;20307;-46
2021/01/19 04:57:07;;;;;;;3.83;3.45;;;;;;;;;;5092320;28;20691;-46
2021/01/19 04:59:38;;;;;;;3.85;2.95;;;;;;;;;;5091687;28;20249;-50
2021/01/19 05:02:26;;;;;;;7.95;3.88;;;;;;;;;;5092473;28;20186;-45
2021/01/19 05:05:06;;;;;;;3.05;2.85;;;;;;;;;;5090775;28;20177;-46
2021/01/19 05:07:33;;;;;;;4.05;3.65;;;;;;;;;;5091901;28;20683;-46
2021/01/19 05:10:02;;;;;;;6.50;4.05;;;;;;;;;;5092312;28;20566;-50
2021/01/19 05:12:31;;;;;;;4.97;3.25;;;;;;;;;;5092130;28;20179;-47
2021/01/19 05:14:58;;;;;;;5.10;3.42;;;;;;;;;;5092133;28;20171;-48
2021/01/19 05:17:24;;;;;;;9.85;4.18;;;;;;;;;;5091581;28;20234;-48
2021/01/19 05:19:51;;;;;;;10.97;3.27;;;;;;;;;;5092035;28;20196;-47
2021/01/19 05:22:19;;;;;;;5.93;3.40;;;;;;;;;;5092106;28;21166;-46
2021/01/19 05:24:46;;;;;;;6.78;3.35;;;;;;;;;;5091916;28;20175;-46
2021/01/19 05:27:13;;;;;;;6.32;3.67;;;;;;;;;;5091658;28;20193;-47
2021/01/19 05:29:39;;;;;;;10.60;4.53;;;;;;;;;;5091830;28;20540;-46
2021/01/19 05:32:05;;;;;;;4.47;2.95;;;;;;;;;;5091862;28;20166;-47
2021/01/19 05:34:36;;;;;;;10.32;3.70;;;;;;;;;;5090639;28;20179;-46
2021/01/19 05:37:02;;;;;;;4.90;3.88;;;;;;;;;;5090899;28;20273;-49
2021/01/19 05:39:28;;;;;;;8.23;3.80;;;;;;;;;;5091582;28;20171;-49
2021/01/19 05:41:54;;;;;;;7.13;3.70;;;;;;;;;;5091671;28;20412;-46
2021/01/19 05:44:25;;;;;;;9.18;3.30;;;;;;;;;;5091622;28;20167;-49
2021/01/19 05:46:51;;;;;;;8.80;3.70;;;;;;;;;;5091050;28;20271;-47
2021/01/19 05:49:19;;;;;;;6.28;3.80;;;;;;;;;;5102832;22;20263;-51
2021/01/19 05:51:45;;;;;;;8.82;3.40;;;;;;;;;;5091044;28;20179;-53
2021/01/19 05:54:20;;;;;;;16.58;4.53;;;;;;;;;;5091497;28;20527;-50
2021/01/19 05:56:47;;;;;;;9.45;4.00;;;;;;;;;;5091118;28;20216;-51
2021/01/19 05:59:23;;;;;;;6.28;3.60;;;;;;;;;;5091307;28;20183;-52
2021/01/19 06:01:56;;;;;;;4.85;3.35;;;;;;;;;;5091245;28;20223;-50
2021/01/19 06:04:29;;;;;;;8.40;3.65;;;;;;;;;;5090179;28;20172;-51
2021/01/19 06:06:56;;;;;;;4.45;3.13;;;;;;;;;;5090915;28;20247;-50
2021/01/19 06:09:23;;;;;;;8.45;3.35;;;;;;;;;;5090932;28;20192;-51
2021/01/19 06:11:52;;;;;;;9.13;3.90;;;;;;;;;;5091039;28;20246;-51
2021/01/19 06:14:25;;;;;;;5.70;3.28;;;;;;;;;;5091135;28;20221;-51
2021/01/19 06:16:52;;;;;;;11.32;3.53;;;;;;;;;;5090843;28;20196;-50
2021/01/19 06:19:28;;;;;;;9.10;4.10;;;;;;;;;;5090886;28;20186;-52
2021/01/19 06:21:54;;;;;;;10.10;4.85;;;;;;;;;;5091093;28;20161;-50
2021/01/19 06:24:19;;;;;;;6.87;3.13;;;;;;;;;;5090939;28;20691;-50
2021/01/19 06:26:45;;;;;;;8.87;4.00;;;;;;;;;;5090699;28;20464;-50
2021/01/19 06:29:11;;;;;;;6.57;4.20;;;;;;;;;;5090691;28;20915;-50
2021/01/19 06:31:38;;;;;;;7.23;4.20;;;;;;;;;;5090956;28;20178;-50
2021/01/19 06:34:04;;;;;;;4.93;3.40;;;;;;;;;;5090793;28;20394;-50
2021/01/19 06:36:37;;;;;;;5.25;3.88;;;;;;;;;;5089650;28;20207;-50
2021/01/19 06:39:03;;;;;;;4.80;3.88;;;;;;;;;;5090627;28;20186;-51
2021/01/19 06:41:33;;;;;;;4.45;3.45;;;;;;;;;;5090824;28;20270;-52
2021/01/19 06:44:03;;;;;;;5.82;3.70;;;;;;;;;;5090888;28;20170;-51
2021/01/19 06:46:30;;;;;;;3.63;3.35;;;;;;;;;;5090624;28;20190;-54
2021/01/19 06:48:58;;;;;;;7.68;4.00;;;;;;;;;;5090658;28;20214;-51
2021/01/19 06:51:24;;;;;;;4.45;3.63;;;;;;;;;;5090785;28;20170;-52
2021/01/19 06:53:59;;;;;;;3.75;3.38;;;;;;;;;;5090933;28;20262;-51
2021/01/19 06:56:32;;;;;;;9.00;4.97;;;;;;;;;;5090367;28;20279;-50
2021/01/19 06:58:59;;;;;;;11.77;4.68;;;;;;;;;;5090756;28;20185;-53
2021/01/19 07:01:26;;;;;;;9.38;4.25;;;;;;;;;;5090770;28;20175;-51
2021/01/19 07:03:58;;;;;;;9.00;4.38;;;;;;;;;;5089673;28;20595;-53
2021/01/19 07:06:30;;;;;;;3.90;3.53;;;;;;;;;;5090052;28;20231;-52
2021/01/19 07:09:11;;;;;;;5.07;3.47;;;;;;;;;;5089565;28;20215;-52
2021/01/19 07:11:37;;;;;;;15.38;4.35;;;;;;;;;;5089327;28;20175;-51
2021/01/19 07:14:11;;;;;;;5.03;4.13;;;;;;;;;;5090105;28;20180;-51
2021/01/19 07:16:43;;;;;;;10.32;3.53;;;;;;;;;;5089472;28;20196;-52
2021/01/19 07:19:17;;;;;;;8.13;4.50;;;;;;;;;;5089844;28;20265;-52
2021/01/19 07:21:46;;;;;;;10.07;4.32;;;;;;;;;;5090852;28;20172;-51
2021/01/19 07:24:21;;;;;;;5.47;3.83;;;;;;;;;;5093686;28;20166;-51
2021/01/19 07:26:47;;;;;;;5.40;3.45;;;;;;;;;;5093359;28;20681;-52
2021/01/19 07:29:15;;;;;;;7.68;4.60;;;;;;;;;;5093385;28;20186;-51
2021/01/19 07:31:41;;;;;;;5.05;4.15;;;;;;;;;;5093317;28;20175;-53
2021/01/19 07:34:08;;;;;;;6.70;4.22;;;;;;;;;;5092148;28;20740;-52
2021/01/19 07:36:34;;;;;;;4.65;3.88;;;;;;;;;;5093650;28;20297;-51
2021/01/19 07:39:10;;;;;;;4.93;3.97;;;;;;;;;;5093985;28;20191;-51
2021/01/19 07:41:36;;;;;;;3.95;3.53;;;;;;;;;;5094031;28;20167;-52
2021/01/19 07:44:02;;;;;;;4.80;3.67;;;;;;;;;;5093773;28;20232;-51
2021/01/19 07:46:29;;;;;;;8.55;4.75;;;;;;;;;;5093656;28;20403;-51
2021/01/19 07:49:02;;;;;;;3.75;3.45;;;;;;;;;;5093735;28;20325;-51
2021/01/19 07:51:47;;;;;;;3.88;3.30;;;;;;;;;;5093699;28;20172;-51
2021/01/19 07:54:15;;;;;;;3.97;3.60;;;;;;;;;;5093747;28;20580;-52
2021/01/19 07:56:41;;;;;;;4.43;3.75;;;;;;;;;;5093124;28;20316;-51
2021/01/19 07:59:17;;;;;;;4.32;3.53;;;;;;;;;;5093589;28;20267;-52
2021/01/19 08:01:58;;;;;;;4.70;3.78;;;;;;;;;;5093456;28;20219;-51
2021/01/19 08:04:43;;;;;;;3.95;3.65;;;;;;;;;;5092757;28;20181;-53
2021/01/19 08:07:20;;;;;;;6.00;3.80;;;;;;;;;;5093072;28;20182;-51
2021/01/19 08:09:46;;;;;;;4.90;3.90;;;;;;;;;;5093758;28;20179;-51
2021/01/19 08:12:14;;;;;;;5.38;3.83;;;;;;;;;;5093371;28;20672;-51
2021/01/19 08:14:45;;;;;;;3.72;3.30;;;;;;;;;;5093396;28;20194;-52
2021/01/19 08:17:14;;;;;;;3.55;3.35;;;;;;;;;;5092852;28;20199;-52
2021/01/19 08:19:41;;;;;;;3.30;3.10;;;;;;;;;;5093171;28;20252;-51
2021/01/19 08:22:07;;;;;;;3.35;2.80;;;;;;;;;;5093264;28;20167;-52
2021/01/19 08:24:33;;;;;;;3.17;2.88;;;;;;;;;;5093171;28;20165;-52
2021/01/19 08:27:00;;;;;;;3.58;3.25;;;;;;;;;;5092887;28;20163;-51
2021/01/19 08:29:26;;;;;;;3.30;3.10;;;;;;;;;;5092961;28;20204;-53
2021/01/19 08:31:54;;;;;;;7.90;3.13;;;;;;;;;;5092161;28;20177;-51
2021/01/19 08:34:20;;;;;;;5.60;2.88;;;;;;;;;;5092756;28;20172;-53
2021/01/19 08:36:47;;;;;;;3.58;3.03;;;;;;;;;;5092686;28;20641;-53
2021/01/19 08:39:15;;;;;;;3.90;3.60;;;;;;;;;;5092762;28;20560;-51
2021/01/19 08:41:43;;;;;;;3.22;2.92;;;;;;;;;;5093025;28;20251;-51
2021/01/19 08:44:10;;;;;;;2.85;2.35;;;;;;;;;;5092598;28;20224;-51
2021/01/19 08:46:36;;;;;;;2.72;2.53;;;;;;;;;;5085622;28;20169;-52
2021/01/19 08:49:12;;;;;;;3.60;3.05;;;;;;;;;;5091692;28;20223;-52
2021/01/19 08:51:42;;;;;;;3.25;2.95;;;;;;;;;;5092077;28;20246;-52
2021/01/19 08:54:09;;;;;;;3.70;3.10;;;;;;;;;;5092104;28;20256;-52
2021/01/19 08:56:38;;;;;;;4.28;2.80;;;;;;;;;;5092175;28;20278;-53
2021/01/19 08:59:04;;;;;;;3.10;2.88;;;;;;;;;;5091640;28;20186;-51
2021/01/19 09:01:30;;;;;;;4.33;2.83;;;;;;;;;;5089278;28;20185;-52
2021/01/19 09:03:57;;;;;;;4.23;2.90;;;;;;;;;;5090908;28;20531;-51
2021/01/19 09:06:23;;;;;;;6.30;3.20;;;;;;;;;;5091744;28;20419;-52
2021/01/19 09:08:59;;;;;;;3.40;3.10;;;;;;;;;;5092083;28;20192;-51
2021/01/19 09:11:28;;;;;;;6.13;2.65;;;;;;;;;;5091932;28;20254;-51
2021/01/19 09:14:08;;;;;;;3.13;2.75;;;;;;;;;;5092004;28;20172;-51
2021/01/19 09:16:35;;;;;;;2.58;2.38;;;;;;;;;;5091679;28;20200;-52
2021/01/19 09:19:02;;;;;;;2.80;2.63;;;;;;;;;;5092174;28;20244;-51
2021/01/19 09:21:28;;;;;;;2.70;2.60;;;;;;;;;;5092093;28;20171;-52
2021/01/19 09:23:55;;;;;;;2.70;2.50;;;;;;;;;;5081544;28;20259;-52
2021/01/19 09:26:21;;;;;;;2.70;2.50;;;;;;;;;;5091605;28;20166;-51
2021/01/19 09:28:47;;;;;;;3.60;3.30;;;;;;;;;;5091650;28;20200;-51
2021/01/19 09:31:23;;;;;;;2.75;2.55;;;;;;;;;;5091885;28;20171;-52
2021/01/19 09:33:51;;;;;;;2.67;2.50;;;;;;;;;;5091762;28;20593;-51
2021/01/19 09:36:17;;;;;;;2.75;2.55;;;;;;;;;;5091523;28;20239;-52
2021/01/19 09:38:44;;;;;;;3.47;2.40;;;;;;;;;;5091493;28;20200;-52
2021/01/19 09:41:14;;;;;;;2.90;2.67;;;;;;;;;;5091724;28;20162;-51
2021/01/19 09:43:40;;;;;;;4.13;3.30;;;;;;;;;;5091674;28;20158;-52
2021/01/19 09:46:06;;;;;;;2.83;2.63;;;;;;;;;;5090811;28;20569;-52
2021/01/19 09:48:34;;;;;;;3.17;2.75;;;;;;;;;;5091452;28;20260;-51
2021/01/19 09:51:04;;;;;;;4.72;3.40;;;;;;;;;;5091423;28;20195;-52
2021/01/19 09:53:32;;;;;;;2.80;2.60;;;;;;;;;;5089676;28;20189;-51
2021/01/19 09:55:59;;;;;;;3.20;2.90;;;;;;;;;;5091051;28;20211;-51
2021/01/19 09:58:26;;;;;;;5.97;3.10;;;;;;;;;;5091379;28;20215;-53
2021/01/19 10:00:52;;;;;;;3.35;2.75;;;;;;;;;;5091302;28;20261;-53
2021/01/19 10:03:20;;;;;;;3.47;3.13;;;;;;;;;;5090583;28;20179;-52
2021/01/19 10:05:57;;;;;;;4.30;3.00;;;;;;;;;;5090911;28;20184;-53
2021/01/19 10:08:23;;;;;;;3.72;3.40;;;;;;;;;;5091078;28;20671;-52
2021/01/19 10:10:49;;;;;;;3.80;3.45;;;;;;;;;;5091219;28;20671;-51
2021/01/19 10:13:15;;;;;;;3.50;3.20;;;;;;;;;;5091071;28;20165;-51
2021/01/19 10:15:41;;;;;;;3.47;3.27;;;;;;;;;;5090801;28;20961;-51
2021/01/19 10:18:07;;;;;;;5.70;3.83;;;;;;;;;;5090910;28;20418;-51
2021/01/19 10:20:37;;;;;;;5.60;3.50;;;;;;;;;;5073223;28;20404;-51
2021/01/19 10:23:04;;;;;;;5.10;3.65;;;;;;;;;;5090924;28;20453;-51
2021/01/19 10:25:31;;;;;;;3.60;3.30;;;;;;;;;;5089739;28;20177;-51
2021/01/19 10:27:58;;;;;;;4.70;3.60;;;;;;;;;;5090806;28;20596;-52
2021/01/19 10:30:28;;;;;;;3.70;2.95;;;;;;;;;;5091130;28;20179;-51
2021/01/19 10:32:54;;;;;;;4.47;3.00;;;;;;;;;;5091132;28;20204;-51
2021/01/19 10:35:28;;;;;;;3.10;2.90;;;;;;;;;;5091059;28;20191;-51
2021/01/19 10:37:55;;;;;;;3.65;3.20;;;;;;;;;;5087050;28;20447;-52
2021/01/19 10:40:21;;;;;;;3.47;3.28;;;;;;;;;;5066783;28;20185;-52
2021/01/19 10:42:47;;;;;;;3.53;3.20;;;;;;;;;;5083009;28;20204;-51
2021/01/19 10:45:21;;;;;;;3.85;3.55;;;;;;;;;;5090629;28;20176;-52
2021/01/19 10:47:47;;;;;;;4.10;3.72;;;;;;;;;;5087291;28;20703;-52
2021/01/19 10:50:14;;;;;;;4.03;3.72;;;;;;;;;;5086644;28;20182;-52
2021/01/19 10:52:41;;;;;;;3.90;3.60;;;;;;;;;;5070194;28;20166;-51
2021/01/19 10:55:10;;;;;;;4.05;3.67;;;;;;;;;;5087924;28;20166;-52
2021/01/19 10:57:36;;;;;;;3.58;3.38;;;;;;;;;;5079163;28;20231;-51
2021/01/19 11:00:03;;;;;;;4.60;3.10;;;;;;;;;;5075947;28;20170;-51
2021/01/19 11:02:30;;;;;;;3.45;3.25;;;;;;;;;;5079507;28;20723;-52
2021/01/19 11:04:56;;;;;;;3.90;3.63;;;;;;;;;;5084106;28;20170;-52
2021/01/19 11:07:22;;;;;;;3.65;3.40;;;;;;;;;;5082370;28;20170;-51
2021/01/19 11:09:48;;;;;;;5.22;3.30;;;;;;;;;;5089599;28;20181;-52
2021/01/19 11:12:18;;;;;;;5.32;3.78;;;;;;;;;;5092385;28;20337;-51
2021/01/19 11:14:44;;;;;;;5.35;3.95;;;;;;;;;;5091873;28;20668;-51
2021/01/19 11:17:10;;;;;;;3.60;3.33;;;;;;;;;;5091759;28;20197;-51
2021/01/19 11:19:36;;;;;;;4.43;3.30;;;;;;;;;;5091696;28;20922;-52
2021/01/19 11:22:02;;;;;;;3.47;3.17;;;;;;;;;;5091876;28;20392;-52
2021/01/19 11:24:28;;;;;;;12.48;5.10;;;;;;;;;;5090312;28;20462;-53
2021/01/19 11:26:55;;;;;;;3.63;3.03;;;;;;;;;;5092061;28;20189;-51
2021/01/19 11:29:21;;;;;;;4.53;3.05;;;;;;;;;;5092232;28;20197;-51
2021/01/19 11:31:47;;;;;;;5.60;3.17;;;;;;;;;;5092923;28;20167;-51
2021/01/19 11:34:15;;;;;;;3.50;3.22;;;;;;;;;;5093325;28;20169;-53
2021/01/19 11:36:41;;;;;;;3.20;3.00;;;;;;;;;;5093052;28;20205;-51
2021/01/19 11:39:08;;;;;;;4.10;3.17;;;;;;;;;;5097633;28;20207;-50
2021/01/19 11:41:36;;;;;;;2.90;2.80;;;;;;;;;;5093740;28;20413;-52
2021/01/19 11:44:02;;;;;;;3.88;2.85;;;;;;;;;;5090153;28;20246;-52
2021/01/19 11:46:29;;;;;;;5.47;4.18;;;;;;;;;;5072993;28;20791;-51
2021/01/19 11:48:56;;;;;;;4.38;3.60;;;;;;;;;;5073053;28;20240;-53
2021/01/19 11:51:24;;;;;;;3.20;3.00;;;;;;;;;;5073564;28;20167;-53
2021/01/19 11:53:51;;;;;;;3.40;3.10;;;;;;;;;;5073022;28;20511;-53
2021/01/19 11:56:17;;;;;;;6.93;3.95;;;;;;;;;;5083463;28;20706;-51
2021/01/19 11:58:43;;;;;;;3.30;3.10;;;;;;;;;;5093057;28;20186;-52
2021/01/19 12:01:10;;;;;;;4.80;3.22;;;;;;;;;;5093214;28;20162;-51
2021/01/19 12:03:36;;;;;;;3.70;3.40;;;;;;;;;;5093293;28;20162;-51
2021/01/19 12:06:01;;;;;;;3.60;3.30;;;;;;;;;;5093050;28;20178;-51
2021/01/19 12:08:27;;;;;;;3.30;3.10;;;;;;;;;;5092730;28;20415;-51
2021/01/19 12:10:53;;;;;;;3.20;2.97;;;;;;;;;;5093058;28;20835;-51
2021/01/19 12:13:19;;;;;;;3.43;3.13;;;;;;;;;;5092968;28;20404;-51
2021/01/19 12:15:45;;;;;;;3.07;2.87;;;;;;;;;;5092953;28;20454;-52
2021/01/19 12:18:11;;;;;;;3.50;3.20;;;;;;;;;;5093373;28;20455;-52
2021/01/19 12:20:38;;;;;;;3.75;3.45;;;;;;;;;;5092492;28;20835;-52
2021/01/19 12:23:04;;;;;;;3.85;3.60;;;;;;;;;;5092979;28;20182;-51
2021/01/19 12:25:30;;;;;;;3.40;3.10;;;;;;;;;;5092714;28;20614;-52
2021/01/19 12:27:56;;;;;;;4.22;3.78;;;;;;;;;;5092969;28;20660;-51
2021/01/19 12:30:23;;;;;;;4.68;4.38;;;;;;;;;;5091891;28;20177;-51
2021/01/19 12:32:49;;;;;;;4.20;3.90;;;;;;;;;;5092965;28;20170;-52
2021/01/19 12:35:15;;;;;;;4.50;4.20;;;;;;;;;;5092713;28;20257;-51
2021/01/19 12:37:41;;;;;;;8.63;4.67;;;;;;;;;;5092240;28;20210;-52
2021/01/19 12:40:08;;;;;;;4.13;3.83;;;;;;;;;;5092527;28;20445;-51
2021/01/19 12:42:33;;;;;;;6.90;3.85;;;;;;;;;;5092684;28;20213;-52
2021/01/19 12:44:59;;;;;;;4.20;3.90;;;;;;;;;;5092678;28;20197;-51
2021/01/19 12:47:26;;;;;;;5.73;4.00;;;;;;;;;;5090254;28;20506;-50
2021/01/19 12:49:52;;;;;;;4.15;3.85;;;;;;;;;;5092476;28;20488;-52
2021/01/19 12:52:18;;;;;;;3.83;3.53;;;;;;;;;;5072321;28;20267;-51
2021/01/19 12:54:44;;;;;;;3.47;3.17;;;;;;;;;;5071948;28;20413;-51
2021/01/19 12:57:13;;;;;;;3.78;3.58;;;;;;;;;;5071595;28;20477;-50
2021/01/19 12:59:42;;;;;;;6.53;4.50;;;;;;;;;;5072004;28;20190;-50
2021/01/19 13:02:09;;;;;;;3.87;3.67;;;;;;;;;;5071732;28;20163;-51
2021/01/19 13:04:35;;;;;;;4.35;4.05;;;;;;;;;;5071864;28;20401;-51
2021/01/19 13:07:01;;;;;;;4.32;4.03;;;;;;;;;;5071340;28;20166;-51
2021/01/19 13:09:27;;;;;;;4.80;4.40;;;;;;;;;;5071661;28;20188;-53
2021/01/19 13:11:54;;;;;;;4.50;4.10;;;;;;;;;;5071323;28;20405;-52
2021/01/19 13:14:20;;;;;;;5.07;4.37;;;;;;;;;;5088377;28;20421;-51
2021/01/19 13:16:46;;;;;;;5.53;4.90;;;;;;;;;;5072818;28;20447;-51
2021/01/19 13:19:12;;;;;;;5.80;5.07;;;;;;;;;;5090556;28;20510;-51
2021/01/19 13:21:38;;;;;;;4.95;4.47;;;;;;;;;;5091040;28;20430;-51
2021/01/19 13:24:04;;;;;;;5.30;4.90;;;;;;;;;;5091433;28;20171;-52
2021/01/19 13:26:30;;;;;;;4.70;4.30;;;;;;;;;;5090550;28;20488;-52
2021/01/19 13:28:56;;;;;;;5.45;4.78;;;;;;;;;;5090960;28;20421;-52
2021/01/19 13:31:22;;;;;;;4.90;4.60;;;;;;;;;;5090607;28;20165;-52
2021/01/19 13:33:48;;;;;;;8.00;4.30;;;;;;;;;;5091320;28;20920;-51
2021/01/19 13:36:14;;;;;;;4.47;4.07;;;;;;;;;;5091091;28;20482;-52
2021/01/19 13:38:40;;;;;;;4.00;3.80;;;;;;;;;;5089519;28;20444;-52
2021/01/19 13:41:06;;;;;;;4.20;3.90;;;;;;;;;;5091037;28;20532;-53
2021/01/19 13:43:32;;;;;;;4.37;3.97;;;;;;;;;;5090566;28;20397;-51
2021/01/19 13:45:58;;;;;;;5.88;5.38;;;;;;;;;;5072554;28;20507;-54
2021/01/19 13:48:24;;;;;;;4.43;4.10;;;;;;;;;;5068457;28;20224;-51
2021/01/19 13:50:50;;;;;;;5.60;5.10;;;;;;;;;;5089029;28;20173;-51
2021/01/19 13:53:16;;;;;;;5.63;5.13;;;;;;;;;;5079215;28;20416;-51
2021/01/19 13:55:42;;;;;;;5.27;4.87;;;;;;;;;;5077571;28;20488;-53
2021/01/19 13:58:08;;;;;;;5.40;5.00;;;;;;;;;;5072389;28;20441;-53
2021/01/19 14:00:34;;;;;;;7.23;5.07;;;;;;;;;;5070966;28;20885;-52
2021/01/19 14:03:00;;;;;;;6.00;5.40;;;;;;;;;;5070672;28;20960;-52
2021/01/19 14:05:26;;;;;;;5.93;5.37;;;;;;;;;;5069646;28;20923;-53
2021/01/19 14:07:52;;;;;;;7.27;6.67;;;;;;;;;;5070507;28;20428;-53
2021/01/19 14:10:18;;;;;;;7.60;5.80;;;;;;;;;;5088859;28;20916;-53
2021/01/19 14:12:44;;;;;;;7.23;6.40;;;;;;;;;;5090520;28;20746;-52
2021/01/19 14:15:11;;;;;;;7.40;6.20;;;;;;;;;;5090739;28;20496;-53
2021/01/19 14:17:37;;;;;;;7.50;6.37;;;;;;;;;;5090407;28;20510;-52
2021/01/19 14:20:03;;;;;;;8.37;6.40;;;;;;;;;;5090588;28;20397;-52
2021/01/19 14:22:30;;;;;;;8.43;6.80;;;;;;;;;;5090469;28;20485;-52
2021/01/19 14:24:56;;;;;;;8.40;7.20;;;;;;;;;;5090387;28;20399;-52
2021/01/19 14:27:22;;;;;;;7.13;6.53;;;;;;;;;;5090005;28;20547;-51
2021/01/19 14:29:49;;;;;;;7.97;6.97;;;;;;;;;;5090322;28;20488;-52
2021/01/19 14:32:15;;;;;;;8.63;6.20;;;;;;;;;;5090275;28;20401;-51
2021/01/19 14:34:41;;;;;;;9.63;7.40;;;;;;;;;;5089859;28;20418;-52
2021/01/19 14:37:06;;;;;;;9.27;8.37;;;;;;;;;;5089849;28;20487;-52
2021/01/19 14:39:32;;;;;;;10.20;8.03;;;;;;;;;;5089353;28;20929;-52
2021/01/19 14:41:58;;;;;;;9.80;7.93;;;;;;;;;;5089628;28;20499;-52
2021/01/19 14:44:24;;;;;;;9.73;7.37;;;;;;;;;;5090227;28;20397;-52